Guymon Municipal Airport
KGUY : now visible

Aeroporto :











RITROVATECI SU...

 
LOGIN :

Iscrizione | Disclaimer

   EN    FR    IT 

 









Sommario :    VFR   VFR Marginale   IFR   IFR Intensivo   IFR Molto Intensivo
Visibilità : 
Base nubi : 
>= 8 km
>= 3000ft
5 / 8 km
1000 / 3000 ft
1500m / 5 km
500 / 1000 ft
800 / 1500m
200 / 500 ft
< 800m
< 200 ft
Simboli :   Temporali  Nebbia  Neve Forte  Precipitazioni Forti  Vento > 20 kt






- Altitudine del aeroporto : 3123 ft


KGUY - Guymon Municipal

ULTIMO METAR :
  • 072053Z AUTO 21022KT 10SM CLR 17/02 A2995 RMK AO2 PK WND 21030/2003 SLP132 T01720017 56040

METARs OBSOLETI :
  • 071953Z AUTO 20021G27KT 10SM CLR 16/01 A2998 RMK AO2 PK WND 22027/1950 SLP145 T01610011
  • 071853Z AUTO 20019KT 10SM CLR 14/02 A3003 RMK AO2 PK WND 21027/1800 SLP162 T01440022

TAF KGUY
Valido dal 07 a 18 ore il 08 a 18 ore UTC


071723Z 0718/0818 20014KT P6SM SCT250
FM080800 29008KT P6SM FEW250
FM081700 18005KT P6SM FEW200



MetMap, La meteo Aeronautica in un colpo d'occhio ! - Copyright ORBIFLY Dicembre 2007 - Disclaimer

ORBIFLY MET'MAP TEAM :

Programmazione e sviluppo : Alexandra Zaïnal
Concezione : Baudouin d'Aumeries
Aiuto per la programmazione : Marc-Olivier Méhu
Supporto tecnico e logistico : Manuel Goepfert
Aiuto per la traduzione : Arnaldo La Scala

Contatto : metmap@orbifly.com




FONTI E CREDITI :

   NOAA       Earth
Advisory